Time;durP1;ratioP1;P1;durP2;ratioP2;P2;SDS_P1;SDS_P2;PMS_P1;PMS_P2;Temp;Humidity;BMP_temperature;BMP_pressure;BME280_temperature;BME280_humidity;BME280_pressure;Samples;Min_cycle;Max_cycle;Signal;HPM_P1;HPM_P2
2023/03/15 00:02:22;;;;;;;;;;;;;;;;;;5040060;28;4666;-66
2023/03/15 00:04:47;;;;;;;;;;;;;;;;;;5040808;28;5413;-63
2023/03/15 00:07:12;;;;;;;;;;;;;;;;;;5037953;28;4550;-67
2023/03/15 00:09:37;;;;;;;;;;;;;;;;;;5041738;28;3480;-67
2023/03/15 00:12:03;;;;;;;;;;;;;;;;;;5037419;28;4415;-65
2023/03/15 00:14:28;;;;;;;;;;;;;;;;;;5045989;28;5098;-66
2023/03/15 00:16:53;;;;;;;;;;;;;;;;;;5038833;28;4899;-68
2023/03/15 00:19:19;;;;;;;;;;;;;;;;;;5047093;28;5676;-67
2023/03/15 00:21:45;;;;;;;;;;;;;;;;;;5045573;28;5005;-65
2023/03/15 00:24:10;;;;;;;;;;;;;;;;;;5044074;28;3096;-65
2023/03/15 00:26:35;;;;;;;;;;;;;;;;;;5042828;28;5043;-67
2023/03/15 00:29:01;;;;;;;;;;;;;;;;;;5042566;28;4911;-67
2023/03/15 00:31:26;;;;;;;;;;;;;;;;;;5045174;28;4552;-67
2023/03/15 00:33:54;;;;;;;;;;;;;;;;;;5047405;28;4786;-68
2023/03/15 00:36:22;;;;;;;;;;;;;;;;;;5040032;28;3522;-63
2023/03/15 00:38:47;;;;;;;;;;;;;;;;;;5047682;28;4970;-67
2023/03/15 00:41:13;;;;;;;;;;;;;;;;;;5080225;28;5010;-66
2023/03/15 00:43:39;;;;;;;;;;;;;;;;;;5041152;28;4535;-65
2023/03/15 00:46:04;;;;;;;;;;;;;;;;;;5038540;28;5011;-67
2023/03/15 00:48:30;;;;;;;;;;;;;;;;;;5048439;28;1260;-66
2023/03/15 00:51:08;;;;;;;;;;;;;;;;;;5047881;28;4809;-62
2023/03/15 00:53:34;;;;;;;;;;;;;;;;;;5044649;28;5344;-67
2023/03/15 00:56:02;;;;;;;;;;;;;;;;;;5046350;28;5106;-65
2023/03/15 00:58:28;;;;;;;;;;;;;;;;;;5041147;28;4526;-66
2023/03/15 01:00:53;;;;;;;;;;;;;;;;;;5047473;28;4504;-64
2023/03/15 01:03:18;;;;;;;;;;;;;;;;;;5050046;28;1057;-67
2023/03/15 01:05:43;;;;;;;;;;;;;;;;;;5042371;28;4994;-65
2023/03/15 01:08:09;;;;;;;;;;;;;;;;;;5046330;28;4562;-64
2023/03/15 01:10:34;;;;;;;;;;;;;;;;;;5042667;28;4632;-65
2023/03/15 01:12:59;;;;;;;;;;;;;;;;;;5047385;28;5186;-66
2023/03/15 01:15:25;;;;;;;;;;;;;;;;;;5046371;28;1511;-63
2023/03/15 01:17:50;;;;;;;;;;;;;;;;;;5043012;28;5061;-66
2023/03/15 01:20:15;;;;;;;;;;;;;;;;;;5038746;28;4534;-65
2023/03/15 01:22:41;;;;;;;;;;;;;;;;;;5041175;28;4714;-66
2023/03/15 01:25:06;;;;;;;;;;;;;;;;;;5045934;28;4599;-63
2023/03/15 01:27:31;;;;;;;;;;;;;;;;;;5048374;28;3032;-65
2023/03/15 01:29:56;;;;;;;;;;;;;;;;;;5047188;28;4438;-66
2023/03/15 01:32:22;;;;;;;;;;;;;;;;;;5041254;28;4637;-66
2023/03/15 01:34:47;;;;;;;;;;;;;;;;;;5036260;28;5116;-66
2023/03/15 01:37:13;;;;;;;;;;;;;;;;;;5041309;28;4653;-64
2023/03/15 01:39:39;;;;;;;;;;;;;;;;;;5045521;28;3254;-66
2023/03/15 01:42:04;;;;;;;;;;;;;;;;;;5046342;28;4606;-67
2023/03/15 01:45:05;;;;;;;;;;;;;;;;;;5047190;28;5206;-65
2023/03/15 01:47:31;;;;;;;;;;;;;;;;;;5002190;28;4549;-64
2023/03/15 01:50:06;;;;;;;;;;;;;;;;;;5030590;28;5159;-61
2023/03/15 01:52:33;;;;;;;;;;;;;;;;;;5045387;28;4681;-60
2023/03/15 01:55:04;;;;;;;;;;;;;;;;;;5044091;28;4710;-63
2023/03/15 01:57:36;;;;;;;;;;;;;;;;;;5046569;28;3191;-67
2023/03/15 02:00:06;;;;;;;;;;;;;;;;;;5043445;28;4406;-62
2023/03/15 02:02:31;;;;;;;;;;;;;;;;;;5036524;28;5352;-65
2023/03/15 02:04:58;;;;;;;;;;;;;;;;;;5042971;28;4674;-62
2023/03/15 02:07:24;;;;;;;;;;;;;;;;;;5043506;28;5045;-66
2023/03/15 02:09:51;;;;;;;;;;;;;;;;;;5040375;28;4594;-64
2023/03/15 02:12:16;;;;;;;;;;;;;;;;;;5047109;28;1055;-67
2023/03/15 02:14:42;;;;;;;;;;;;;;;;;;5076177;28;5584;-67
2023/03/15 02:17:08;;;;;;;;;;;;;;;;;;5073190;28;5116;-65
2023/03/15 02:19:39;;;;;;;;;;;;;;;;;;5046368;28;4745;-66
2023/03/15 02:22:08;;;;;;;;;;;;;;;;;;5039735;28;5155;-65
2023/03/15 02:24:46;;;;;;;;;;;;;;;;;;5044017;28;1458;-66
2023/03/15 02:27:11;;;;;;;;;;;;;;;;;;5043797;28;5148;-65
2023/03/15 02:29:36;;;;;;;;;;;;;;;;;;5036621;28;4540;-66
2023/03/15 02:32:04;;;;;;;;;;;;;;;;;;5041732;28;4511;-66
2023/03/15 02:34:30;;;;;;;;;;;;;;;;;;5043723;28;4470;-64
2023/03/15 02:36:55;;;;;;;;;;;;;;;;;;5040009;28;5104;-66
2023/03/15 02:39:21;;;;;;;;;;;;;;;;;;5045061;28;1102;-66
2023/03/15 02:41:53;;;;;;;;;;;;;;;;;;5046278;28;5207;-65
2023/03/15 02:44:21;;;;;;;;;;;;;;;;;;5038386;28;4490;-64
2023/03/15 02:46:47;;;;;;;;;;;;;;;;;;5041399;28;4987;-65
2023/03/15 02:49:12;;;;;;;;;;;;;;;;;;5046570;28;4624;-66
2023/03/15 02:51:38;;;;;;;;;;;;;;;;;;5042508;28;3630;-64
2023/03/15 02:54:03;;;;;;;;;;;;;;;;;;5044173;28;4415;-64
2023/03/15 02:56:28;;;;;;;;;;;;;;;;;;5041800;28;4599;-62
2023/03/15 02:58:53;;;;;;;;;;;;;;;;;;5044700;28;4477;-63
2023/03/15 03:01:19;;;;;;;;;;;;;;;;;;5046135;28;5287;-64
2023/03/15 03:03:44;;;;;;;;;;;;;;;;;;5046079;28;4626;-60
2023/03/15 03:06:10;;;;;;;;;;;;;;;;;;5046493;28;3274;-64
2023/03/15 03:08:35;;;;;;;;;;;;;;;;;;5044863;28;5159;-65
2023/03/15 03:11:00;;;;;;;;;;;;;;;;;;5040433;28;5052;-65
2023/03/15 03:13:26;;;;;;;;;;;;;;;;;;5038128;28;4455;-65
2023/03/15 03:15:57;;;;;;;;;;;;;;;;;;5041436;28;5885;-65
2023/03/15 03:18:23;;;;;;;;;;;;;;;;;;5041281;28;4653;-64
2023/03/15 03:20:48;;;;;;;;;;;;;;;;;;5044019;28;4447;-65
2023/03/15 03:23:13;;;;;;;;;;;;;;;;;;5046458;28;4839;-66
2023/03/15 03:25:38;;;;;;;;;;;;;;;;;;5036452;28;5116;-62
2023/03/15 03:28:04;;;;;;;;;;;;;;;;;;5038999;28;5134;-62
2023/03/15 03:30:29;;;;;;;;;;;;;;;;;;5043263;28;3713;-64
2023/03/15 03:32:55;;;;;;;;;;;;;;;;;;5041156;28;4799;-65
2023/03/15 03:35:20;;;;;;;;;;;;;;;;;;5041086;28;5018;-65
2023/03/15 03:37:45;;;;;;;;;;;;;;;;;;5039652;28;5157;-61
2023/03/15 03:40:11;;;;;;;;;;;;;;;;;;5040333;28;4552;-66
2023/03/15 03:42:36;;;;;;;;;;;;;;;;;;5043661;28;3230;-66
2023/03/15 03:45:01;;;;;;;;;;;;;;;;;;5042471;28;4618;-62
2023/03/15 03:47:27;;;;;;;;;;;;;;;;;;5037635;28;5284;-66
2023/03/15 03:49:52;;;;;;;;;;;;;;;;;;5041571;28;4714;-68
2023/03/15 03:52:17;;;;;;;;;;;;;;;;;;5039732;28;5018;-66
2023/03/15 03:54:43;;;;;;;;;;;;;;;;;;5040707;28;3152;-64
2023/03/15 03:57:09;;;;;;;;;;;;;;;;;;5048898;28;4425;-66
2023/03/15 03:59:34;;;;;;;;;;;;;;;;;;5045646;28;4451;-67
2023/03/15 04:01:59;;;;;;;;;;;;;;;;;;5042555;28;4739;-62
2023/03/15 04:04:25;;;;;;;;;;;;;;;;;;5044371;28;5530;-63
2023/03/15 04:06:50;;;;;;;;;;;;;;;;;;5044405;28;4660;-65
2023/03/15 04:09:16;;;;;;;;;;;;;;;;;;5060672;28;3718;-66
2023/03/15 04:11:44;;;;;;;;;;;;;;;;;;5045169;28;4975;-67
2023/03/15 04:14:09;;;;;;;;;;;;;;;;;;5047134;28;4674;-65
2023/03/15 04:16:35;;;;;;;;;;;;;;;;;;5042145;28;4540;-65
2023/03/15 04:19:00;;;;;;;;;;;;;;;;;;5042059;28;4875;-64
2023/03/15 04:21:30;;;;;;;;;;;;;;;;;;5046848;28;3391;-66
2023/03/15 04:23:55;;;;;;;;;;;;;;;;;;5044367;28;4646;-66
2023/03/15 04:26:21;;;;;;;;;;;;;;;;;;5042069;28;4529;-62
2023/03/15 04:28:46;;;;;;;;;;;;;;;;;;5041562;28;5459;-65
2023/03/15 04:31:13;;;;;;;;;;;;;;;;;;5042624;28;5145;-61
2023/03/15 04:33:38;;;;;;;;;;;;;;;;;;5047145;28;3195;-66
2023/03/15 04:36:04;;;;;;;;;;;;;;;;;;5034125;28;4952;-67
2023/03/15 04:38:31;;;;;;;;;;;;;;;;;;5034601;28;4508;-65
2023/03/15 04:40:56;;;;;;;;;;;;;;;;;;5044420;28;5016;-66
2023/03/15 04:43:23;;;;;;;;;;;;;;;;;;5042389;28;4491;-66
2023/03/15 04:45:48;;;;;;;;;;;;;;;;;;5039974;28;4502;-62
2023/03/15 04:48:13;;;;;;;;;;;;;;;;;;5046143;28;3357;-65
2023/03/15 04:50:39;;;;;;;;;;;;;;;;;;5039777;28;4634;-65
2023/03/15 04:53:04;;;;;;;;;;;;;;;;;;5044489;28;5426;-66
2023/03/15 04:55:29;;;;;;;;;;;;;;;;;;5045290;28;5069;-65
2023/03/15 04:57:55;;;;;;;;;;;;;;;;;;5041591;28;5525;-67
2023/03/15 05:00:20;;;;;;;;;;;;;;;;;;5046266;28;1271;-63
2023/03/15 05:02:53;;;;;;;;;;;;;;;;;;5045121;28;4504;-65
2023/03/15 05:05:18;;;;;;;;;;;;;;;;;;5040139;28;4587;-64
2023/03/15 05:07:43;;;;;;;;;;;;;;;;;;5047016;28;4527;-66
2023/03/15 05:10:09;;;;;;;;;;;;;;;;;;5047708;28;4498;-65
2023/03/15 05:12:34;;;;;;;;;;;;;;;;;;5040555;28;3215;-66
2023/03/15 05:14:59;;;;;;;;;;;;;;;;;;5044614;28;4728;-67
2023/03/15 05:17:25;;;;;;;;;;;;;;;;;;5035311;28;5232;-65
2023/03/15 05:19:50;;;;;;;;;;;;;;;;;;5037066;28;4625;-67
2023/03/15 05:22:16;;;;;;;;;;;;;;;;;;5045473;28;5079;-65
2023/03/15 05:24:42;;;;;;;;;;;;;;;;;;5044983;28;3676;-67
2023/03/15 05:27:07;;;;;;;;;;;;;;;;;;5044240;28;5381;-66
2023/03/15 05:29:33;;;;;;;;;;;;;;;;;;5046467;28;4455;-66
2023/03/15 05:31:58;;;;;;;;;;;;;;;;;;5046152;28;4993;-66
2023/03/15 05:34:23;;;;;;;;;;;;;;;;;;5045475;28;4625;-67
2023/03/15 05:36:50;;;;;;;;;;;;;;;;;;5041739;28;4534;-64
2023/03/15 05:39:15;;;;;;;;;;;;;;;;;;5042452;28;1116;-66
2023/03/15 05:41:41;;;;;;;;;;;;;;;;;;5021184;28;4562;-65
2023/03/15 05:44:06;;;;;;;;;;;;;;;;;;5046121;28;4675;-60
2023/03/15 05:46:31;;;;;;;;;;;;;;;;;;5038192;28;4886;-66
2023/03/15 05:48:57;;;;;;;;;;;;;;;;;;5039427;28;4742;-65
2023/03/15 05:51:22;;;;;;;;;;;;;;;;;;5030396;28;3615;-63
2023/03/15 05:53:47;;;;;;;;;;;;;;;;;;5031806;28;4670;-64
2023/03/15 05:56:12;;;;;;;;;;;;;;;;;;5048857;28;4566;-64
2023/03/15 05:58:38;;;;;;;;;;;;;;;;;;5042408;28;4918;-60
2023/03/15 06:01:03;;;;;;;;;;;;;;;;;;5039697;28;4505;-64
2023/03/15 06:03:30;;;;;;;;;;;;;;;;;;5044587;28;3448;-65
2023/03/15 06:05:55;;;;;;;;;;;;;;;;;;5045140;28;4638;-67
2023/03/15 06:08:20;;;;;;;;;;;;;;;;;;5049376;28;5093;-66
2023/03/15 06:10:46;;;;;;;;;;;;;;;;;;5037833;28;5175;-67
2023/03/15 06:13:11;;;;;;;;;;;;;;;;;;5043332;28;4560;-65
2023/03/15 06:15:36;;;;;;;;;;;;;;;;;;5036723;28;3706;-60
2023/03/15 06:18:01;;;;;;;;;;;;;;;;;;5041161;28;4605;-68
2023/03/15 06:20:27;;;;;;;;;;;;;;;;;;5046077;28;4649;-65
2023/03/15 06:22:52;;;;;;;;;;;;;;;;;;5040632;28;4681;-67
2023/03/15 06:25:17;;;;;;;;;;;;;;;;;;5046263;28;5090;-64
2023/03/15 06:27:42;;;;;;;;;;;;;;;;;;5040115;28;1157;-64
2023/03/15 06:30:08;;;;;;;;;;;;;;;;;;5034067;28;4639;-63
2023/03/15 06:32:33;;;;;;;;;;;;;;;;;;5045336;28;5408;-60
2023/03/15 06:34:58;;;;;;;;;;;;;;;;;;5037340;28;4708;-61
2023/03/15 06:37:24;;;;;;;;;;;;;;;;;;5040913;28;4546;-61
2023/03/15 06:39:50;;;;;;;;;;;;;;;;;;5041824;28;4822;-61
2023/03/15 06:42:15;;;;;;;;;;;;;;;;;;5041878;28;3532;-60
2023/03/15 06:44:42;;;;;;;;;;;;;;;;;;5043529;28;5044;-61
2023/03/15 06:47:07;;;;;;;;;;;;;;;;;;5039080;28;4724;-60
2023/03/15 06:49:33;;;;;;;;;;;;;;;;;;5042550;28;4611;-60
2023/03/15 06:51:58;;;;;;;;;;;;;;;;;;5047220;28;4597;-60
2023/03/15 06:54:23;;;;;;;;;;;;;;;;;;5046035;28;3220;-60
2023/03/15 06:56:48;;;;;;;;;;;;;;;;;;5040233;28;5082;-60
2023/03/15 06:59:14;;;;;;;;;;;;;;;;;;5042055;28;4503;-60
2023/03/15 07:01:39;;;;;;;;;;;;;;;;;;5043939;28;4534;-61
2023/03/15 07:04:04;;;;;;;;;;;;;;;;;;5044361;28;5068;-61
2023/03/15 07:06:30;;;;;;;;;;;;;;;;;;5046685;28;1106;-60
2023/03/15 07:08:55;;;;;;;;;;;;;;;;;;5045880;28;4627;-60
2023/03/15 07:11:20;;;;;;;;;;;;;;;;;;5031782;28;4984;-59
2023/03/15 07:13:45;;;;;;;;;;;;;;;;;;5043805;28;4688;-60
2023/03/15 07:16:11;;;;;;;;;;;;;;;;;;5042333;28;4686;-60
2023/03/15 07:18:36;;;;;;;;;;;;;;;;;;5044085;28;4768;-61
2023/03/15 07:21:02;;;;;;;;;;;;;;;;;;5044062;28;4502;-60
2023/03/15 07:23:27;;;;;;;;;;;;;;;;;;5046932;28;4590;-59
2023/03/15 07:25:53;;;;;;;;;;;;;;;;;;5043904;28;4798;-60
2023/03/15 07:28:18;;;;;;;;;;;;;;;;;;5049759;28;5001;-60
2023/03/15 07:30:50;;;;;;;;;;;;;;;;;;5047486;28;1152;-60
2023/03/15 07:33:16;;;;;;;;;;;;;;;;;;5043281;28;4800;-60
2023/03/15 07:35:41;;;;;;;;;;;;;;;;;;5044736;28;4587;-59
2023/03/15 07:38:06;;;;;;;;;;;;;;;;;;5037989;28;4993;-61
2023/03/15 07:40:31;;;;;;;;;;;;;;;;;;5046058;28;5180;-59
2023/03/15 07:42:57;;;;;;;;;;;;;;;;;;5050089;28;4574;-60
2023/03/15 07:45:22;;;;;;;;;;;;;;;;;;5048830;28;1570;-60
2023/03/15 07:47:47;;;;;;;;;;;;;;;;;;5047012;28;4924;-59
2023/03/15 07:50:13;;;;;;;;;;;;;;;;;;5047098;28;4523;-59
2023/03/15 07:52:39;;;;;;;;;;;;;;;;;;5047361;28;4763;-61
2023/03/15 07:55:07;;;;;;;;;;;;;;;;;;5045495;28;4487;-60
2023/03/15 07:57:32;;;;;;;;;;;;;;;;;;5050774;28;1914;-60
2023/03/15 07:59:57;;;;;;;;;;;;;;;;;;5045470;28;4472;-60
2023/03/15 08:02:22;;;;;;;;;;;;;;;;;;5041920;28;5126;-60
2023/03/15 08:04:49;;;;;;;;;;;;;;;;;;5046547;28;5044;-60
2023/03/15 08:07:15;;;;;;;;;;;;;;;;;;5043641;28;5026;-60
2023/03/15 08:09:40;;;;;;;;;;;;;;;;;;5049235;28;1147;-60
2023/03/15 08:12:06;;;;;;;;;;;;;;;;;;5044823;28;4941;-59
2023/03/15 08:14:31;;;;;;;;;;;;;;;;;;5046420;28;5137;-60
2023/03/15 08:16:56;;;;;;;;;;;;;;;;;;5044972;28;5089;-59
2023/03/15 08:19:21;;;;;;;;;;;;;;;;;;5049696;28;4764;-60
2023/03/15 08:21:47;;;;;;;;;;;;;;;;;;5049064;28;4946;-60
2023/03/15 08:24:12;;;;;;;;;;;;;;;;;;5042988;28;3374;-60
2023/03/15 08:26:37;;;;;;;;;;;;;;;;;;5049670;28;5038;-61
2023/03/15 08:29:02;;;;;;;;;;;;;;;;;;5040129;28;4482;-60
2023/03/15 08:31:28;;;;;;;;;;;;;;;;;;5048271;28;5245;-60
2023/03/15 08:33:53;;;;;;;;;;;;;;;;;;5043119;28;4825;-60
2023/03/15 08:36:18;;;;;;;;;;;;;;;;;;5038075;28;1922;-60
2023/03/15 08:38:44;;;;;;;;;;;;;;;;;;5047606;28;4618;-59
2023/03/15 08:41:09;;;;;;;;;;;;;;;;;;5047423;28;4652;-60
2023/03/15 08:43:34;;;;;;;;;;;;;;;;;;5044481;28;4746;-60
2023/03/15 08:45:59;;;;;;;;;;;;;;;;;;5042329;28;4653;-60
2023/03/15 08:48:25;;;;;;;;;;;;;;;;;;5044895;28;3349;-60
2023/03/15 08:50:50;;;;;;;;;;;;;;;;;;5043830;28;4461;-60
2023/03/15 08:53:15;;;;;;;;;;;;;;;;;;5044459;28;4501;-60
2023/03/15 08:55:40;;;;;;;;;;;;;;;;;;5042327;28;4623;-60
2023/03/15 08:58:06;;;;;;;;;;;;;;;;;;5047656;28;5005;-60
2023/03/15 09:00:31;;;;;;;;;;;;;;;;;;5044314;28;1244;-60
2023/03/15 09:02:57;;;;;;;;;;;;;;;;;;5040481;28;4611;-60
2023/03/15 09:05:22;;;;;;;;;;;;;;;;;;5041191;28;5037;-60
2023/03/15 09:07:48;;;;;;;;;;;;;;;;;;5048809;28;4458;-61
2023/03/15 09:10:14;;;;;;;;;;;;;;;;;;5043219;28;5489;-61
2023/03/15 09:12:42;;;;;;;;;;;;;;;;;;5045397;28;3186;-60
2023/03/15 09:15:07;;;;;;;;;;;;;;;;;;5043871;28;5060;-60
2023/03/15 09:17:33;;;;;;;;;;;;;;;;;;5043956;28;4460;-60
2023/03/15 09:19:58;;;;;;;;;;;;;;;;;;5045397;28;4990;-60
2023/03/15 09:22:23;;;;;;;;;;;;;;;;;;5046287;28;4712;-60
2023/03/15 09:24:49;;;;;;;;;;;;;;;;;;5045201;28;4623;-60
2023/03/15 09:27:15;;;;;;;;;;;;;;;;;;5049037;28;1107;-60
2023/03/15 09:29:40;;;;;;;;;;;;;;;;;;5048351;28;4461;-60
2023/03/15 09:32:05;;;;;;;;;;;;;;;;;;5042621;28;5046;-59
2023/03/15 09:34:30;;;;;;;;;;;;;;;;;;5043411;28;6445;-60
2023/03/15 09:36:56;;;;;;;;;;;;;;;;;;5036619;28;4644;-60
2023/03/15 09:39:21;;;;;;;;;;;;;;;;;;5042862;28;2176;-60
2023/03/15 09:41:49;;;;;;;;;;;;;;;;;;5034083;28;4591;-60
2023/03/15 09:44:33;;;;;;;;;;;;;;;;;;5039751;28;4473;-60
2023/03/15 09:47:11;;;;;;;;;;;;;;;;;;5037584;28;4519;-60
2023/03/15 09:49:57;;;;;;;;;;;;;;;;;;5044631;28;4997;-61
2023/03/15 09:52:26;;;;;;;;;;;;;;;;;;5045297;28;4662;-60
2023/03/15 09:54:53;;;;;;;;;;;;;;;;;;5043933;28;5162;-59
2023/03/15 09:57:22;;;;;;;;;;;;;;;;;;5047317;28;1918;-60
2023/03/15 09:59:48;;;;;;;;;;;;;;;;;;5041949;28;4541;-60
2023/03/15 10:02:13;;;;;;;;;;;;;;;;;;5045934;28;4656;-60
2023/03/15 10:04:41;;;;;;;;;;;;;;;;;;5046276;28;4570;-60
2023/03/15 10:07:08;;;;;;;;;;;;;;;;;;5042039;28;4506;-60
2023/03/15 10:09:36;;;;;;;;;;;;;;;;;;5030265;28;1149;-60
2023/03/15 10:12:07;;;;;;;;;;;;;;;;;;5043347;28;4449;-59
2023/03/15 10:14:43;;;;;;;;;;;;;;;;;;5037674;28;5035;-61
2023/03/15 10:17:12;;;;;;;;;;;;;;;;;;5044698;28;4644;-60
2023/03/15 10:20:00;;;;;;;;;;;;;;;;;;5043649;28;5530;-60
2023/03/15 10:22:33;;;;;;;;;;;;;;;;;;5045799;28;4648;-60
2023/03/15 10:25:04;;;;;;;;;;;;;;;;;;5046417;28;4837;-60
2023/03/15 10:27:36;;;;;;;;;;;;;;;;;;5039520;28;1131;-60
2023/03/15 10:30:02;;;;;;;;;;;;;;;;;;5045708;28;4600;-60
2023/03/15 10:32:29;;;;;;;;;;;;;;;;;;5045646;28;4443;-60
2023/03/15 10:34:55;;;;;;;;;;;;;;;;;;5043385;28;4674;-59
2023/03/15 10:37:22;;;;;;;;;;;;;;;;;;5042624;28;4765;-60
2023/03/15 10:39:48;;;;;;;;;;;;;;;;;;5047591;28;5095;-59
2023/03/15 10:42:45;;;;;;;;;;;;;;;;;;5042655;28;1419;-60
2023/03/15 10:45:23;;;;;;;;;;;;;;;;;;5049418;28;4541;-60
2023/03/15 10:47:49;;;;;;;;;;;;;;;;;;5039074;28;4617;-60
2023/03/15 10:50:24;;;;;;;;;;;;;;;;;;5043771;28;5181;-60
2023/03/15 10:52:49;;;;;;;;;;;;;;;;;;5041310;28;5083;-60
2023/03/15 10:55:15;;;;;;;;;;;;;;;;;;5076426;28;4686;-60
2023/03/15 10:57:49;;;;;;;;;;;;;;;;;;5047513;28;1965;-60
2023/03/15 11:00:25;;;;;;;;;;;;;;;;;;5048915;28;4599;-60
2023/03/15 11:02:51;;;;;;;;;;;;;;;;;;5046344;28;4621;-60
2023/03/15 11:05:17;;;;;;;;;;;;;;;;;;5049106;28;5038;-59
2023/03/15 11:07:58;;;;;;;;;;;;;;;;;;5050812;28;4469;-60
2023/03/15 11:10:24;;;;;;;;;;;;;;;;;;5040638;28;5424;-60
2023/03/15 11:12:50;;;;;;;;;;;;;;;;;;5050963;28;4742;-60
2023/03/15 11:15:15;;;;;;;;;;;;;;;;;;5051139;28;1145;-60
2023/03/15 11:17:44;;;;;;;;;;;;;;;;;;5040178;28;4646;-60
2023/03/15 11:20:19;;;;;;;;;;;;;;;;;;5038119;28;4636;-60
2023/03/15 11:22:44;;;;;;;;;;;;;;;;;;5036537;28;4456;-60
2023/03/15 11:25:15;;;;;;;;;;;;;;;;;;5031907;28;5172;-60
2023/03/15 11:27:42;;;;;;;;;;;;;;;;;;5043717;28;1152;-61
2023/03/15 11:30:14;;;;;;;;;;;;;;;;;;5038475;28;4938;-60
2023/03/15 11:32:39;;;;;;;;;;;;;;;;;;5038542;28;4430;-60
2023/03/15 11:35:14;;;;;;;;;;;;;;;;;;5047030;28;4572;-60
2023/03/15 11:37:41;;;;;;;;;;;;;;;;;;5039836;28;5149;-60
2023/03/15 11:40:10;;;;;;;;;;;;;;;;;;5053827;28;5343;-60
2023/03/15 11:42:37;;;;;;;;;;;;;;;;;;5024650;28;3194;-60
2023/03/15 11:45:03;;;;;;;;;;;;;;;;;;5027286;28;4731;-60
2023/03/15 11:47:38;;;;;;;;;;;;;;;;;;5032187;28;4478;-60
2023/03/15 11:50:04;;;;;;;;;;;;;;;;;;5048748;28;4464;-60
2023/03/15 11:52:29;;;;;;;;;;;;;;;;;;5036318;28;4711;-60
2023/03/15 11:54:56;;;;;;;;;;;;;;;;;;5044930;28;4693;-59
2023/03/15 11:57:27;;;;;;;;;;;;;;;;;;5038435;28;2139;-60
2023/03/15 11:59:52;;;;;;;;;;;;;;;;;;5042086;28;4449;-60
2023/03/15 12:02:17;;;;;;;;;;;;;;;;;;5082130;28;4990;-60
2023/03/15 12:04:46;;;;;;;;;;;;;;;;;;5044975;28;4847;-60
2023/03/15 12:07:15;;;;;;;;;;;;;;;;;;5043465;28;5110;-59
2023/03/15 12:09:47;;;;;;;;;;;;;;;;;;5049929;28;1213;-59
2023/03/15 12:12:24;;;;;;;;;;;;;;;;;;5077402;28;5106;-60
2023/03/15 12:15:09;;;;;;;;;;;;;;;;;;5044648;28;4431;-60
2023/03/15 12:17:36;;;;;;;;;;;;;;;;;;5044852;28;5256;-60
2023/03/15 12:20:13;;;;;;;;;;;;;;;;;;5045280;28;4982;-60
2023/03/15 12:22:57;;;;;;;;;;;;;;;;;;5040467;28;4921;-59
2023/03/15 12:25:30;;;;;;;;;;;;;;;;;;5043020;28;4666;-60
2023/03/15 12:27:55;;;;;;;;;;;;;;;;;;5040095;28;5356;-60
2023/03/15 12:30:30;;;;;;;;;;;;;;;;;;5047773;28;1333;-60
2023/03/15 12:32:55;;;;;;;;;;;;;;;;;;5037914;28;4655;-60
2023/03/15 12:35:21;;;;;;;;;;;;;;;;;;5038576;28;5030;-60
2023/03/15 12:37:46;;;;;;;;;;;;;;;;;;5047378;28;5025;-60
2023/03/15 12:40:14;;;;;;;;;;;;;;;;;;5043446;28;4826;-61
2023/03/15 12:42:40;;;;;;;;;;;;;;;;;;5044951;28;3191;-60
2023/03/15 12:45:14;;;;;;;;;;;;;;;;;;5048301;28;4493;-60
2023/03/15 12:47:48;;;;;;;;;;;;;;;;;;5054020;28;5036;-60
2023/03/15 12:50:32;;;;;;;;;;;;;;;;;;5037138;28;4722;-59
2023/03/15 12:52:58;;;;;;;;;;;;;;;;;;5047979;28;4502;-60
2023/03/15 12:55:23;;;;;;;;;;;;;;;;;;5040079;28;4656;-60
2023/03/15 12:57:49;;;;;;;;;;;;;;;;;;5045321;28;4554;-60
2023/03/15 13:00:16;;;;;;;;;;;;;;;;;;5038528;28;3606;-60
2023/03/15 13:02:45;;;;;;;;;;;;;;;;;;5042786;28;4562;-60
2023/03/15 13:05:12;;;;;;;;;;;;;;;;;;5043463;28;5420;-60
2023/03/15 13:07:49;;;;;;;;;;;;;;;;;;5044493;28;4594;-60
2023/03/15 13:10:18;;;;;;;;;;;;;;;;;;5072418;28;4502;-61
2023/03/15 13:13:03;;;;;;;;;;;;;;;;;;5047026;28;1088;-60
2023/03/15 13:15:52;;;;;;;;;;;;;;;;;;5037419;28;5072;-60
2023/03/15 13:18:18;;;;;;;;;;;;;;;;;;5034531;28;5079;-60
2023/03/15 13:21:05;;;;;;;;;;;;;;;;;;5047708;28;4901;-60
2023/03/15 13:23:30;;;;;;;;;;;;;;;;;;5041378;28;4688;-60
2023/03/15 13:26:08;;;;;;;;;;;;;;;;;;5041737;28;4720;-60
2023/03/15 13:28:46;;;;;;;;;;;;;;;;;;5046181;28;4948;-60
2023/03/15 13:31:16;;;;;;;;;;;;;;;;;;5037323;28;4450;-60
2023/03/15 13:33:41;;;;;;;;;;;;;;;;;;5045616;28;1317;-60
2023/03/15 13:36:14;;;;;;;;;;;;;;;;;;5036820;28;4474;-61
2023/03/15 13:38:40;;;;;;;;;;;;;;;;;;5043963;28;4845;-61
2023/03/15 13:41:13;;;;;;;;;;;;;;;;;;5039329;28;4438;-60
2023/03/15 13:43:39;;;;;;;;;;;;;;;;;;5043608;28;4645;-61
2023/03/15 13:46:04;;;;;;;;;;;;;;;;;;5035751;28;5518;-60
2023/03/15 13:48:34;;;;;;;;;;;;;;;;;;5048570;28;1230;-60
2023/03/15 13:51:07;;;;;;;;;;;;;;;;;;5045661;28;4876;-60
2023/03/15 13:53:33;;;;;;;;;;;;;;;;;;5038158;28;4592;-60
2023/03/15 13:55:58;;;;;;;;;;;;;;;;;;5047375;28;5090;-59
2023/03/15 13:58:24;;;;;;;;;;;;;;;;;;5038616;28;4512;-59
2023/03/15 14:00:54;;;;;;;;;;;;;;;;;;5070311;28;5218;-60
2023/03/15 14:03:21;;;;;;;;;;;;;;;;;;5046083;28;1954;-61
2023/03/15 14:05:47;;;;;;;;;;;;;;;;;;5046154;28;5019;-60
2023/03/15 14:08:20;;;;;;;;;;;;;;;;;;5046056;28;4936;-59
2023/03/15 14:10:59;;;;;;;;;;;;;;;;;;5037906;28;4602;-59
2023/03/15 14:13:24;;;;;;;;;;;;;;;;;;5043261;28;5014;-59
2023/03/15 14:15:50;;;;;;;;;;;;;;;;;;5040989;28;5132;-60
2023/03/15 14:18:22;;;;;;;;;;;;;;;;;;5043642;28;4956;-59
2023/03/15 14:21:07;;;;;;;;;;;;;;;;;;5044626;28;4438;-61
2023/03/15 14:23:34;;;;;;;;;;;;;;;;;;5039371;28;5045;-61
2023/03/15 14:26:09;;;;;;;;;;;;;;;;;;5041761;28;4534;-61
2023/03/15 14:28:34;;;;;;;;;;;;;;;;;;5033219;28;4605;-61
2023/03/15 14:31:01;;;;;;;;;;;;;;;;;;5040279;28;4534;-61
2023/03/15 14:33:37;;;;;;;;;;;;;;;;;;5042015;28;3217;-61
2023/03/15 14:36:03;;;;;;;;;;;;;;;;;;5043021;28;4410;-60
2023/03/15 14:38:33;;;;;;;;;;;;;;;;;;5036112;28;4751;-61
2023/03/15 14:41:18;;;;;;;;;;;;;;;;;;5038939;28;4936;-61
2023/03/15 14:43:43;;;;;;;;;;;;;;;;;;5035578;28;5138;-61
2023/03/15 14:46:08;;;;;;;;;;;;;;;;;;5041883;28;4606;-61
2023/03/15 14:48:34;;;;;;;;;;;;;;;;;;5040460;28;3297;-60
2023/03/15 14:50:59;;;;;;;;;;;;;;;;;;5043770;28;4663;-61
2023/03/15 14:53:25;;;;;;;;;;;;;;;;;;5041962;28;4531;-61
2023/03/15 14:55:50;;;;;;;;;;;;;;;;;;5040621;28;4526;-61
2023/03/15 14:58:16;;;;;;;;;;;;;;;;;;5037453;28;5103;-61
2023/03/15 15:00:42;;;;;;;;;;;;;;;;;;5042708;28;1500;-61
2023/03/15 15:03:16;;;;;;;;;;;;;;;;;;5026547;28;5011;-61
2023/03/15 15:05:41;;;;;;;;;;;;;;;;;;5046787;28;4646;-60
2023/03/15 15:08:13;;;;;;;;;;;;;;;;;;5043037;28;5244;-61
2023/03/15 15:10:39;;;;;;;;;;;;;;;;;;5027578;28;4477;-61
2023/03/15 15:13:04;;;;;;;;;;;;;;;;;;5045033;28;4491;-61
2023/03/15 15:15:30;;;;;;;;;;;;;;;;;;5037164;28;3211;-62
2023/03/15 15:17:55;;;;;;;;;;;;;;;;;;5034675;28;4705;-67
2023/03/15 15:20:21;;;;;;;;;;;;;;;;;;5042033;28;4472;-61
2023/03/15 15:22:47;;;;;;;;;;;;;;;;;;5042624;28;4573;-61
2023/03/15 15:25:13;;;;;;;;;;;;;;;;;;5046576;28;4479;-60
2023/03/15 15:27:38;;;;;;;;;;;;;;;;;;5066051;28;3674;-61
2023/03/15 15:30:04;;;;;;;;;;;;;;;;;;5041711;28;4514;-70
2023/03/15 15:32:32;;;;;;;;;;;;;;;;;;5040236;28;4579;-66
2023/03/15 15:34:57;;;;;;;;;;;;;;;;;;5045295;28;4982;-68
2023/03/15 15:37:23;;;;;;;;;;;;;;;;;;5034016;28;4520;-69
2023/03/15 15:39:48;;;;;;;;;;;;;;;;;;5046300;28;5421;-69
2023/03/15 15:42:14;;;;;;;;;;;;;;;;;;5046290;28;2997;-69
2023/03/15 15:44:39;;;;;;;;;;;;;;;;;;5048269;28;4545;-67
2023/03/15 15:47:05;;;;;;;;;;;;;;;;;;5045795;28;4798;-70
2023/03/15 15:49:30;;;;;;;;;;;;;;;;;;5049201;28;4880;-69
2023/03/15 15:51:55;;;;;;;;;;;;;;;;;;5037795;28;5134;-69
2023/03/15 15:54:24;;;;;;;;;;;;;;;;;;5044793;28;3082;-69
2023/03/15 15:56:51;;;;;;;;;;;;;;;;;;5047914;28;4951;-66
2023/03/15 15:59:16;;;;;;;;;;;;;;;;;;5042307;28;4603;-69
2023/03/15 16:01:41;;;;;;;;;;;;;;;;;;5049740;28;5226;-67
2023/03/15 16:04:07;;;;;;;;;;;;;;;;;;5048821;28;4750;-61
2023/03/15 16:06:32;;;;;;;;;;;;;;;;;;5041541;28;3415;-66
2023/03/15 16:08:57;;;;;;;;;;;;;;;;;;5039002;28;5513;-67
2023/03/15 16:11:23;;;;;;;;;;;;;;;;;;5048112;28;4459;-63
2023/03/15 16:13:49;;;;;;;;;;;;;;;;;;5043963;28;5121;-66
2023/03/15 16:16:15;;;;;;;;;;;;;;;;;;5041494;28;4724;-68
2023/03/15 16:18:40;;;;;;;;;;;;;;;;;;5050538;28;4741;-69
2023/03/15 16:21:05;;;;;;;;;;;;;;;;;;5044760;28;4643;-70
2023/03/15 16:23:31;;;;;;;;;;;;;;;;;;5057191;28;4468;-68
2023/03/15 16:25:56;;;;;;;;;;;;;;;;;;5037925;28;4510;-63
2023/03/15 16:28:22;;;;;;;;;;;;;;;;;;5050245;28;4711;-67
2023/03/15 16:30:47;;;;;;;;;;;;;;;;;;5049465;28;4996;-62
2023/03/15 16:33:17;;;;;;;;;;;;;;;;;;5041118;28;3590;-67
2023/03/15 16:35:42;;;;;;;;;;;;;;;;;;5045284;28;4527;-67
2023/03/15 16:38:10;;;;;;;;;;;;;;;;;;5046152;28;5145;-68
2023/03/15 16:40:36;;;;;;;;;;;;;;;;;;5037530;28;4762;-68
2023/03/15 16:43:05;;;;;;;;;;;;;;;;;;5038264;28;5255;-67
2023/03/15 16:45:30;;;;;;;;;;;;;;;;;;5036141;28;3357;-68
2023/03/15 16:47:55;;;;;;;;;;;;;;;;;;5042599;28;4621;-67
2023/03/15 16:50:20;;;;;;;;;;;;;;;;;;5049379;28;4447;-69
2023/03/15 16:52:46;;;;;;;;;;;;;;;;;;5042568;28;5015;-68
2023/03/15 16:55:12;;;;;;;;;;;;;;;;;;5048343;28;4507;-68
2023/03/15 16:57:38;;;;;;;;;;;;;;;;;;5047405;28;1902;-65
2023/03/15 17:00:10;;;;;;;;;;;;;;;;;;5047853;28;4595;-68
2023/03/15 17:02:35;;;;;;;;;;;;;;;;;;5041351;28;4998;-60
2023/03/15 17:05:01;;;;;;;;;;;;;;;;;;5045382;28;5049;-60